Wind From: 11-12-2017 12:03 Until: 12-12-2017 06:00 warning for: Wind Level: Orange info button

Power and phone distribution networks may be disrupted for relatively long periods., Roofs and chimneys can be damaged. , Tree branches may break. , Vehicles can be deported. , Traffic may be disrupted, particularly on secondary roads in forest areas. Limit your trips. , Limit your speed in highway driving, especially if you drive a vehicle or hitch sensitive to wind. , Do not go for walks in forests or along the coast., In town, be vigilant against possible falling objects., Do not work on roofs and do not touch any electrical line fallen on the ground., Store or secure sensitive objects to wind or likely to be damaged., Always install power generators outside buildings. 


Meteo18 Weather Cam more information Meteo18 Weather Cam


Thunder radar more information blitzortung!


Rain radar more information rain snow radar


Visit our other weather sites:

Template documentation
and downloads

And another site



Weather Underground History page Text

Daily Summary for February 1, 2017 Units:  English    Metric   Both
« Previous Day
Next Day »
Daily Weekly Monthly Yearly Custom
  High: Low: Average:
Temperature: 56.5 °F 40.8 °F 48.7 °F
Dew Point: 50.9 °F 40.3 °F 46 °F
Humidity: 98 % 77 % 91 %
Wind Speed: 8 mph 0 mph 1.4 mph
Wind Gust: 12 mph - -
Wind:- - SSW
Pressure: 30 in 29.9 in -
Precipitation: 0.01 in    
Historical Graphs
 
 
Tabular Data for February 1, 2017
Time Temperature Dew Point Pressure Wind Wind Speed Wind Gust Humidity Rainfall Rate (Hourly)
00:02 48.4 °F 47.8 °F 30 in Calm     98 % 0 in
00:12 48.4 °F 47.8 °F 30 in Calm     98 % 0 in
00:17 48.4 °F 47.8 °F 30 in Calm     98 % 0 in
00:22 48.6 °F 48 °F 30 in Calm     98 % 0 in
00:32 48.4 °F 47.8 °F 30 in Calm     98 % 0 in
00:37 48.4 °F 47.8 °F 30 in Calm     98 % 0 in
00:42 48.4 °F 47.8 °F 30 in Calm     98 % 0 in
00:52 48.4 °F 47.8 °F 30 in Calm     98 % 0 in
00:57 48 °F 47.5 °F 30 in Calm     98 % 0 in
01:02 48 °F 47.5 °F 30 in Calm     98 % 0 in
01:12 48 °F 47.5 °F 30 in Calm     98 % 0 in
01:17 48 °F 47.5 °F 30 in Calm     98 % 0 in
01:22 48 °F 47.5 °F 30 in Calm     98 % 0 in
01:27 48 °F 47.5 °F 30 in Calm     98 % 0 in
01:32 48 °F 47.5 °F 30 in Calm     98 % 0 in
01:37 48 °F 47.5 °F 30 in Calm     98 % 0 in
01:42 47.8 °F 47.3 °F 30 in Calm     98 % 0 in
01:47 47.8 °F 47.3 °F 30 in Calm     98 % 0 in
01:52 47.8 °F 47.3 °F 30 in Calm     98 % 0 in
01:57 47.8 °F 47.3 °F 30 in Calm     98 % 0 in
02:02 47.7 °F 47.1 °F 30 in Calm     98 % 0 in
02:07 47.7 °F 47.1 °F 30 in Calm     98 % 0 in
02:12 47.7 °F 47.1 °F 30 in Calm     98 % 0 in
02:17 47.7 °F 47.1 °F 30 in Calm     98 % 0 in
02:22 47.5 °F 46.9 °F 30 in Calm     98 % 0 in
02:27 47.3 °F 46.8 °F 30 in Calm     98 % 0 in
02:32 47.3 °F 46.8 °F 30 in Calm     98 % 0 in
02:37 47.5 °F 46.9 °F 30 in Calm     98 % 0 in
02:42 47.5 °F 46.9 °F 30 in Calm     98 % 0 in
02:47 47.5 °F 46.9 °F 30 in Calm     98 % 0 in
02:52 47.3 °F 46.8 °F 30 in Calm     98 % 0 in
02:57 47.3 °F 46.8 °F 30 in Calm     98 % 0 in
03:02 47.3 °F 46.8 °F 30 in Calm     98 % 0 in
03:07 47.1 °F 46.6 °F 30 in Calm     98 % 0 in
03:12 46.9 °F 46.4 °F 30 in Calm     98 % 0 in
03:17 46.8 °F 46.2 °F 30 in Calm     98 % 0 in
03:22 46.9 °F 46.4 °F 30 in Calm     98 % 0 in
03:27 46.8 °F 46.2 °F 30 in Calm     98 % 0 in
03:32 46.9 °F 46.4 °F 30 in Calm     98 % 0 in
03:37 46.9 °F 46.4 °F 30 in Calm     98 % 0 in
03:42 46.4 °F 45.9 °F 30 in Calm     98 % 0 in
03:47 46.2 °F 45.7 °F 30 in Calm     98 % 0 in
03:52 46.2 °F 45.7 °F 30 in Calm     98 % 0 in
03:57 46.2 °F 45.7 °F 30 in Calm     98 % 0 in
04:02 46.2 °F 45.7 °F 30 in Calm     98 % 0 in
04:07 46.2 °F 45.7 °F 30 in Calm     98 % 0 in
04:12 46 °F 45.5 °F 30 in Calm     98 % 0 in
04:17 45.9 °F 45.3 °F 30 in Calm     98 % 0 in
04:22 45.7 °F 45.1 °F 30 in Calm     98 % 0 in
04:27 45.3 °F 44.8 °F 30 in Calm     98 % 0 in
04:32 45.1 °F 44.6 °F 30 in Calm     98 % 0 in
04:37 45.1 °F 44.6 °F 30 in Calm     98 % 0 in
04:42 45.1 °F 44.6 °F 30 in Calm     98 % 0 in
04:47 45 °F 44.4 °F 30 in Calm     98 % 0 in
04:52 45 °F 44.4 °F 30 in Calm     98 % 0 in
04:57 45.1 °F 44.6 °F 30 in Calm     98 % 0 in
05:02 45.3 °F 44.8 °F 30 in Calm     98 % 0 in
05:07 45.1 °F 44.6 °F 30 in Calm     98 % 0 in
05:12 45.1 °F 44.6 °F 30 in Calm     98 % 0 in
05:17 45.1 °F 44.6 °F 30 in Calm     98 % 0 in
05:22 45 °F 44.4 °F 30 in Calm     98 % 0 in
05:27 44.8 °F 44.2 °F 30 in Calm     98 % 0 in
05:32 44.2 °F 43.7 °F 30 in Calm     98 % 0 in
05:37 43.9 °F 43.3 °F 30 in Calm     98 % 0 in
05:42 44.1 °F 43.5 °F 30 in Calm     98 % 0 in
05:47 44.2 °F 43.7 °F 30 in Calm     98 % 0 in
05:52 43.9 °F 43.3 °F 30 in Calm     98 % 0 in
05:57 44.1 °F 43.5 °F 30 in Calm     98 % 0 in
06:02 44.1 °F 43.5 °F 30 in Calm     98 % 0 in
06:12 43.7 °F 43.2 °F 30 in Calm     98 % 0 in
06:17 43.5 °F 43 °F 30 in Calm     98 % 0 in
06:22 43.3 °F 42.8 °F 30 in Calm     98 % 0 in
06:27 43.3 °F 42.8 °F 30 in Calm     98 % 0 in
06:32 43.3 °F 42.8 °F 30 in Calm     98 % 0 in
06:37 43.3 °F 42.8 °F 30 in Calm     98 % 0 in
06:42 43 °F 42.4 °F 30 in Calm     98 % 0 in
06:47 43 °F 42.4 °F 30 in Calm     98 % 0 in
06:52 43 °F 42.4 °F 30 in Calm     98 % 0 in
06:57 42.8 °F 42.3 °F 30 in Calm     98 % 0 in
07:02 42.8 °F 42.3 °F 30 in Calm     98 % 0 in
07:07 42.6 °F 42.1 °F 30 in Calm     98 % 0 in
07:12 42.6 °F 42.1 °F 30 in Calm     98 % 0 in
07:17 42.4 °F 41.9 °F 30 in Calm     98 % 0 in
07:22 42.3 °F 41.7 °F 30 in Calm     98 % 0 in
07:27 42.3 °F 41.7 °F 30 in Calm     98 % 0 in
07:32 42.3 °F 41.7 °F 30 in Calm     98 % 0 in
07:37 42.4 °F 41.9 °F 30 in Calm     98 % 0 in
07:42 42.3 °F 41.7 °F 30 in Calm     98 % 0 in
07:47 42.4 °F 41.9 °F 30 in Calm     98 % 0 in
07:52 42.3 °F 41.7 °F 30 in Calm     98 % 0 in
07:57 42.3 °F 41.7 °F 30 in Calm     98 % 0 in
08:02 42.3 °F 41.7 °F 30 in Calm     98 % 0 in
08:07 41.7 °F 41.2 °F 30 in Calm     98 % 0 in
08:12 41.2 °F 40.6 °F 30 in Calm     98 % 0 in
08:17 41.2 °F 40.6 °F 30 in Calm     98 % 0 in
08:22 41.5 °F 41 °F 30 in Calm     98 % 0 in
08:27 41.5 °F 41 °F 30 in Calm     98 % 0.01 in
08:32 41.5 °F 41 °F 30 in Calm     98 % 0.01 in
08:37 41.5 °F 41 °F 30 in Calm     98 % 0.01 in
08:42 41.9 °F 41.4 °F 30 in Calm     98 % 0.01 in
08:47 41.7 °F 41.2 °F 30 in Calm     98 % 0.01 in
08:52 41.5 °F 41 °F 30 in Calm     98 % 0.01 in
08:57 41.4 °F 40.8 °F 30 in Calm     98 % 0.01 in
09:02 41.5 °F 41 °F 30 in Calm     98 % 0.01 in
09:07 41.5 °F 41 °F 30 in Calm     98 % 0.01 in
09:12 41.4 °F 40.8 °F 30 in Calm     98 % 0.01 in
09:17 40.8 °F 40.3 °F 30 in Calm     98 % 0.01 in
09:22 41.2 °F 40.6 °F 30 in Calm     98 % 0.01 in
09:27 41.5 °F 41 °F 30 in Calm     98 % 0 in
09:32 41.9 °F 41.4 °F 30 in Calm     98 % 0 in
09:37 42.1 °F 41.5 °F 30 in Calm     98 % 0 in
09:42 42.3 °F 41.7 °F 30 in Calm     98 % 0 in
09:52 42.6 °F 42.1 °F 30 in Calm     98 % 0 in
09:57 43.2 °F 42.6 °F 30 in Calm     98 % 0 in
10:02 43.5 °F 43 °F 30 in Calm     98 % 0 in
10:07 44.8 °F 44.2 °F 30 in Calm     98 % 0 in
10:12 45 °F 44.4 °F 30 in Calm     98 % 0 in
10:17 44.4 °F 43.9 °F 30 in Calm     98 % 0 in
10:22 44.4 °F 43.9 °F 30 in Calm     98 % 0 in
10:27 45 °F 44.4 °F 30 in Calm     98 % 0 in
10:32 45.1 °F 44.6 °F 30 in Calm     98 % 0 in
10:42 45.5 °F 45 °F 30 in Calm     98 % 0 in
10:47 45.1 °F 44.6 °F 30 in Calm   2 mph 98 % 0 in
10:52 45.1 °F 44.4 °F 30 in Calm   2 mph 97 % 0 in
10:57 45.3 °F 44.8 °F 30 in Calm   2 mph 98 % 0 in
11:02 45.3 °F 44.6 °F 30 in ESE 1 mph 2 mph 97 % 0 in
11:07 45.5 °F 44.8 °F 30 in Calm   3 mph 97 % 0 in
11:12 45.9 °F 45.3 °F 30 in Calm   3 mph 98 % 0 in
11:17 46.4 °F 45.9 °F 30 in Calm   3 mph 98 % 0 in
11:22 46.6 °F 46 °F 30 in SE 1 mph 2 mph 98 % 0 in
11:27 46.9 °F 46.4 °F 30 in Calm   2 mph 98 % 0 in
11:32 47.3 °F 46.8 °F 30 in Calm   2 mph 98 % 0 in
11:37 47.8 °F 46.9 °F 30 in Calm   2 mph 97 % 0 in
11:42 48 °F 47.1 °F 30 in Calm     97 % 0 in
11:47 48.7 °F 47.8 °F 30 in Calm   3 mph 97 % 0 in
11:52 48.9 °F 47.8 °F 30 in Calm   4 mph 96 % 0 in
11:57 49.1 °F 48 °F 30 in SE 2 mph 4 mph 96 % 0 in
12:02 49.5 °F 48.4 °F 30 in SE 3 mph 4 mph 96 % 0 in
12:07 49.8 °F 48.2 °F 30 in SSW 2 mph 5 mph 94 % 0 in
12:12 50.4 °F 48.4 °F 30 in ESE 3 mph 5 mph 93 % 0 in
12:17 50.5 °F 48.4 °F 30 in Calm   5 mph 92 % 0 in
12:22 50.9 °F 48.7 °F 30 in Calm   3 mph 92 % 0 in
12:32 52 °F 49.1 °F 30 in South 1 mph 3 mph 90 % 0 in
12:37 52.3 °F 48.9 °F 29.9 in Calm   3 mph 88 % 0 in
12:47 53.1 °F 49.3 °F 29.9 in Calm   5 mph 87 % 0 in
12:52 53.4 °F 49.3 °F 29.9 in South 2 mph 5 mph 86 % 0 in
12:57 54 °F 49.8 °F 29.9 in South 3 mph 5 mph 86 % 0 in
13:02 54 °F 49.8 °F 29.9 in SE 2 mph 6 mph 86 % 0 in
13:07 54.1 °F 49.8 °F 29.9 in SE 2 mph 6 mph 85 % 0 in
13:12 54.7 °F 50 °F 29.9 in SSW 2 mph 6 mph 84 % 0 in
13:17 54.7 °F 49.6 °F 29.9 in South 2 mph 6 mph 83 % 0 in
13:22 54.5 °F 50 °F 29.9 in South 1 mph 6 mph 85 % 0 in
13:27 54.7 °F 50 °F 29.9 in SSW 1 mph 6 mph 84 % 0 in
13:32 55 °F 50.4 °F 29.9 in SE 1 mph 6 mph 84 % 0 in
13:37 55.2 °F 50.7 °F 29.9 in SSE 4 mph 6 mph 85 % 0 in
13:42 55.6 °F 50.9 °F 29.9 in SE 1 mph 8 mph 84 % 0 in
13:47 55.9 °F 50.9 °F 29.9 in South 2 mph 8 mph 83 % 0 in
13:52 55.9 °F 49.5 °F 29.9 in South 4 mph 7 mph 79 % 0 in
13:57 55.9 °F 49.5 °F 29.9 in SSW 8 mph 8 mph 79 % 0 in
14:02 55.9 °F 50.2 °F 29.9 in South 6 mph 9 mph 81 % 0 in
14:07 56.1 °F 50 °F 29.9 in SSW 5 mph 9 mph 80 % 0 in
14:12 56.3 °F 49.8 °F 29.9 in SSW 3 mph 9 mph 79 % 0 in
14:17 56.5 °F 50 °F 29.9 in SW 5 mph 10 mph 79 % 0 in
14:22 56.3 °F 49.1 °F 29.9 in South 4 mph 11 mph 77 % 0 in
14:27 56.1 °F 49.3 °F 29.9 in SSW 5 mph 12 mph 78 % 0 in
14:32 56.1 °F 50 °F 29.9 in SW 6 mph 12 mph 80 % 0 in
14:37 56.1 °F 50 °F 29.9 in SW 7 mph 10 mph 80 % 0 in
14:42 56.3 °F 49.8 °F 29.9 in SSW 4 mph 9 mph 79 % 0 in
14:47 56.3 °F 49.8 °F 29.9 in SSW 6 mph 9 mph 79 % 0 in
14:52 56.3 °F 50.5 °F 29.9 in South 3 mph 9 mph 81 % 0 in
14:57 56.3 °F 50.2 °F 29.9 in SSE 2 mph 9 mph 80 % 0 in
15:02 56.1 °F 50 °F 29.9 in South 5 mph 8 mph 80 % 0 in
15:07 56.1 °F 50.4 °F 29.9 in SSW 6 mph 6 mph 81 % 0 in
15:12 56.3 °F 49.8 °F 29.9 in South 5 mph 7 mph 79 % 0 in
15:17 56.3 °F 50.5 °F 29.9 in South 3 mph 7 mph 81 % 0 in
15:22 56.1 °F 50.4 °F 29.9 in South 3 mph 7 mph 81 % 0 in
15:27 56.1 °F 50.4 °F 29.9 in SW 4 mph 6 mph 81 % 0 in
15:32 55.9 °F 49.5 °F 29.9 in SSW 4 mph 7 mph 79 % 0 in
15:37 55.9 °F 50.2 °F 29.9 in South 4 mph 8 mph 81 % 0 in
15:42 55.6 °F 49.8 °F 29.9 in SSW 3 mph 8 mph 81 % 0 in
15:52 55.2 °F 49.5 °F 29.9 in South 4 mph 5 mph 81 % 0 in
15:57 55 °F 48.9 °F 29.9 in South 3 mph 7 mph 80 % 0 in
16:02 54.9 °F 49.1 °F 29.9 in SSW 2 mph 7 mph 81 % 0 in
16:07 54.7 °F 48.9 °F 29.9 in SSW 3 mph 7 mph 81 % 0 in
16:12 54.7 °F 48.9 °F 29.9 in SSE 2 mph 5 mph 81 % 0 in
16:17 54.5 °F 48.7 °F 29.9 in SSW 1 mph 5 mph 81 % 0 in
16:22 54.1 °F 48.7 °F 29.9 in SSW 1 mph 5 mph 82 % 0 in
16:27 54.1 °F 48.7 °F 29.9 in SSW 1 mph 4 mph 82 % 0 in
16:32 54.1 °F 48.7 °F 29.9 in SW 2 mph 4 mph 82 % 0 in
16:37 54.1 °F 48.7 °F 29.9 in SW 2 mph 4 mph 82 % 0 in
16:42 54 °F 48.6 °F 29.9 in SSW 2 mph 5 mph 82 % 0 in
16:47 53.8 °F 48.7 °F 29.9 in SSW 3 mph 5 mph 83 % 0 in
16:52 53.6 °F 48.6 °F 29.9 in SSW 2 mph 4 mph 83 % 0 in
16:57 53.4 °F 48.7 °F 29.9 in SW 3 mph 4 mph 84 % 0 in
17:02 53.4 °F 48.7 °F 29.9 in SSW 1 mph 3 mph 84 % 0 in
17:07 53.2 °F 48.6 °F 29.9 in SSW 1 mph 3 mph 84 % 0 in
17:12 53.2 °F 48.6 °F 29.9 in SSW 1 mph 3 mph 84 % 0 in
17:17 53.1 °F 48.7 °F 29.9 in SSW 1 mph 2 mph 85 % 0 in
17:22 53.1 °F 48.7 °F 29.9 in South 1 mph 2 mph 85 % 0 in
17:27 52.9 °F 48.6 °F 29.9 in South 1 mph 2 mph 85 % 0 in
17:32 52.7 °F 48.4 °F 29.9 in SSW 1 mph 2 mph 85 % 0 in
17:37 52.5 °F 48.2 °F 29.9 in SSW 2 mph 3 mph 85 % 0 in
17:42 52.5 °F 48.2 °F 29.9 in SSW 1 mph 4 mph 85 % 0 in
17:47 52.3 °F 48.2 °F 29.9 in SSW 1 mph 4 mph 86 % 0 in
17:52 52.3 °F 48.2 °F 29.9 in SSW 1 mph 4 mph 86 % 0 in
17:57 52.3 °F 48.2 °F 29.9 in SW 1 mph 2 mph 86 % 0 in
18:02 52.3 °F 48 °F 29.9 in SSW 2 mph 2 mph 85 % 0 in
18:07 52.3 °F 48 °F 29.9 in SSW 2 mph 2 mph 85 % 0 in
18:12 52.3 °F 48 °F 29.9 in SSW 1 mph 2 mph 85 % 0 in
18:17 52.3 °F 48 °F 29.9 in SSW 2 mph 3 mph 85 % 0 in
18:22 52.3 °F 47.7 °F 29.9 in SSW 1 mph 3 mph 84 % 0 in
18:27 52.3 °F 48 °F 29.9 in SSW 1 mph 3 mph 85 % 0 in
18:32 52.2 °F 47.5 °F 29.9 in SSW 1 mph 3 mph 84 % 0 in
18:37 52 °F 47.7 °F 29.9 in SW 2 mph 2 mph 85 % 0 in
18:42 52 °F 47.3 °F 29.9 in SW 1 mph 3 mph 84 % 0 in
18:47 52 °F 47.3 °F 29.9 in SW 3 mph 3 mph 84 % 0 in
18:52 52 °F 47.3 °F 29.9 in SSW 3 mph 4 mph 84 % 0 in
18:57 52 °F 47.3 °F 29.9 in South 2 mph 4 mph 84 % 0 in
19:02 51.6 °F 46.9 °F 29.9 in SSW 1 mph 4 mph 84 % 0 in
19:07 51.3 °F 46.9 °F 29.9 in SSW 3 mph 4 mph 85 % 0 in
19:12 50.9 °F 46.6 °F 29.9 in SSW 3 mph 4 mph 85 % 0 in
19:17 50.9 °F 46.6 °F 29.9 in SW 4 mph 4 mph 85 % 0 in
19:22 51.1 °F 46.8 °F 29.9 in SW 8 mph 8 mph 85 % 0 in
19:27 51.1 °F 46.8 °F 29.9 in SW 5 mph 8 mph 85 % 0 in
19:32 51.1 °F 46.8 °F 29.9 in SW 6 mph 8 mph 85 % 0 in
19:37 50.9 °F 46.6 °F 29.9 in SW 6 mph 8 mph 85 % 0 in
19:42 51.3 °F 46.6 °F 29.9 in SW 8 mph 9 mph 84 % 0 in
19:47 51.8 °F 46.8 °F 29.9 in SW 3 mph 9 mph 83 % 0 in
19:52 52.2 °F 46.8 °F 29.9 in SW 4 mph 9 mph 82 % 0 in
19:57 52.2 °F 46.8 °F 29.9 in West 2 mph 9 mph 82 % 0 in
20:02 52.3 °F 46.8 °F 29.9 in Calm   7 mph 81 % 0 in
20:12 52.7 °F 46.8 °F 29.9 in SW 4 mph 9 mph 80 % 0 in
20:17 52.9 °F 46.9 °F 29.9 in SW 2 mph 9 mph 80 % 0 in
20:22 52.9 °F 46.9 °F 29.9 in WSW 7 mph 9 mph 80 % 0 in
20:32 52.9 °F 46.9 °F 29.9 in SW 5 mph 9 mph 80 % 0 in
20:37 52.7 °F 46.8 °F 29.9 in SW 6 mph 9 mph 80 % 0 in
20:42 52.3 °F 46.8 °F 29.9 in SW 6 mph 8 mph 81 % 0 in
20:52 52.2 °F 46.6 °F 29.9 in SW 6 mph 10 mph 81 % 0 in
20:57 52.2 °F 46.6 °F 29.9 in SW 7 mph 10 mph 81 % 0 in
21:02 52 °F 46.4 °F 29.9 in SSW 3 mph 10 mph 81 % 0 in
21:07 51.1 °F 46.4 °F 29.9 in SSW 6 mph 10 mph 84 % 0 in
21:12 51.1 °F 46.4 °F 29.9 in SW 3 mph 10 mph 84 % 0 in
21:22 51.4 °F 46.2 °F 29.9 in SW 3 mph 8 mph 82 % 0 in
21:32 51.3 °F 46.2 °F 29.9 in SSW 3 mph 8 mph 83 % 0 in
21:37 50.9 °F 45.9 °F 29.9 in SW 4 mph 7 mph 83 % 0 in
21:42 50.9 °F 46.2 °F 29.9 in SW 3 mph 6 mph 84 % 0 in
21:47 50.9 °F 45.9 °F 29.9 in SW 5 mph 5 mph 83 % 0 in
21:52 50.9 °F 45.9 °F 29.9 in SW 4 mph 6 mph 83 % 0 in
21:57 50.9 °F 45.9 °F 29.9 in SSW 1 mph 6 mph 83 % 0 in
22:02 50 °F 45 °F 29.9 in SSE 2 mph 6 mph 83 % 0 in
22:12 48.6 °F 44.8 °F 29.9 in South 1 mph 3 mph 87 % 0 in
22:17 47.8 °F 44.4 °F 29.9 in SW 3 mph 3 mph 88 % 0 in
22:22 48.4 °F 45.3 °F 29.9 in SW 4 mph 4 mph 89 % 0 in
22:27 48.9 °F 45.5 °F 29.9 in SSW 3 mph 5 mph 88 % 0 in
22:32 49.5 °F 45.5 °F 29.9 in SW 3 mph 5 mph 86 % 0 in
22:37 50 °F 45.7 °F 29.9 in WSW 4 mph 6 mph 85 % 0 in
22:42 50.2 °F 45.5 °F 29.9 in WSW 4 mph 6 mph 84 % 0 in
22:52 50.7 °F 46 °F 29.9 in SSW 2 mph 8 mph 84 % 0 in
22:57 50.4 °F 45.3 °F 29.9 in SSE 1 mph 8 mph 83 % 0 in
23:02 48.6 °F 43.7 °F 29.9 in SE 2 mph 7 mph 83 % 0 in
23:12 47.3 °F 43.7 °F 29.9 in SSE 1 mph 4 mph 87 % 0 in
23:17 46.6 °F 43 °F 29.9 in SSW 1 mph 4 mph 87 % 0 in
23:22 45.9 °F 42.8 °F 29.9 in SSW 1 mph 3 mph 89 % 0 in
23:27 45.7 °F 43 °F 29.9 in South 1 mph 2 mph 90 % 0 in
23:32 45.5 °F 43 °F 29.9 in SSW 1 mph 2 mph 91 % 0 in
23:42 46 °F 43.9 °F 29.9 in SSE 1 mph 2 mph 92 % 0 in
23:47 46.2 °F 44.1 °F 29.9 in Calm   2 mph 92 % 0 in
23:52 46.2 °F 44.1 °F 29.9 in Calm   1 mph 92 % 0 in
23:57 46 °F 43.5 °F 29.9 in SSW 1 mph 1 mph 91 % 0 in
Meteo18
Compliments of Weather Underground - 4 mb

Script developed by  Jim McMurry - jmcmurry@mwt.net Adapted for the template by  Wim van der Kuil - Leuven-Template.eu

You find our weather info also at:

European Weather Network

Weather Underground

Equipment we use:

Weather-station
Davis Vue

Weather-program
Meteohub

Weather-server
Raspberry PI 2 B+

Provider
1 and 1

Davis Vue

Meteohub

Raspberry PI 2 B+

1 and 1